Time;durP1;ratioP1;P1;durP2;ratioP2;P2;SDS_P1;SDS_P2;PMS_P1;PMS_P2;Temp;Humidity;BMP_temperature;BMP_pressure;BME280_temperature;BME280_humidity;BME280_pressure;Samples;Min_cycle;Max_cycle;Signal;HPM_P1;HPM_P2
2021/12/05 00:23:39;;;;;;;8.50;7.90;;;3.90;99.90;;;;;;4924029;29;20705;-80
2021/12/05 00:26:08;;;;;;;9.27;8.67;;;3.90;99.90;;;;;;4924141;29;20176;-80
2021/12/05 00:34:35;;;;;;;11.70;11.17;;;3.90;99.90;;;;;;4921744;29;20227;-80
2021/12/05 01:16:07;;;;;;;6.03;5.63;;;4.20;99.90;;;;;;4924207;29;20176;-77
2021/12/05 01:18:34;;;;;;;6.47;5.87;;;4.20;99.90;;;;;;4924281;29;20188;-80
2021/12/05 01:21:06;;;;;;;7.47;5.60;;;4.10;99.90;;;;;;4920633;29;20257;-80
2021/12/05 01:26:14;;;;;;;6.20;5.70;;;4.10;99.90;;;;;;4922163;29;20281;-80
2021/12/05 02:01:04;;;;;;;6.27;5.97;;;4.20;99.90;;;;;;4936646;29;20186;-79
2021/12/05 02:31:05;;;;;;;9.20;8.80;;;4.20;99.90;;;;;;4918538;29;20244;-79
2021/12/05 02:41:28;;;;;;;11.57;11.07;;;4.20;99.90;;;;;;4920834;29;20176;-78
2021/12/05 02:44:03;;;;;;;10.13;9.53;;;4.20;99.90;;;;;;4920628;29;20208;-79
2021/12/05 02:46:29;;;;;;;9.23;8.53;;;4.10;99.90;;;;;;4918550;29;20192;-80
2021/12/05 02:49:01;;;;;;;8.17;7.77;;;4.00;99.90;;;;;;4938830;29;20188;-78
2021/12/05 02:51:28;;;;;;;7.60;7.23;;;3.90;99.90;;;;;;4938694;29;20191;-79
2021/12/05 02:54:08;;;;;;;6.93;6.40;;;3.90;99.90;;;;;;4946072;29;20223;-78
2021/12/05 02:56:40;;;;;;;6.50;6.20;;;3.80;99.90;;;;;;4925174;29;20186;-79
2021/12/05 03:02:14;;;;;;;10.27;9.77;;;3.90;99.90;;;;;;4936934;29;20197;-80
2021/12/05 03:04:44;;;;;;;11.00;10.50;;;3.80;99.90;;;;;;4922649;29;20225;-80
2021/12/05 03:07:11;;;;;;;9.97;9.27;;;3.80;99.90;;;;;;4918048;29;20222;-81
2021/12/05 03:09:40;;;;;;;6.97;6.57;;;3.80;99.90;;;;;;4918444;29;20204;-80
2021/12/05 03:12:09;;;;;;;5.87;5.60;;;3.80;99.90;;;;;;4920060;29;20189;-79
2021/12/05 03:14:36;;;;;;;6.93;6.33;;;3.90;99.90;;;;;;4921999;29;20212;-80
2021/12/05 03:17:02;;;;;;;6.60;6.33;;;3.80;99.90;;;;;;4923476;29;20183;-80
2021/12/05 03:19:27;;;;;;;8.77;8.27;;;3.80;99.90;;;;;;4922571;29;20189;-80
2021/12/05 03:21:53;;;;;;;9.00;8.60;;;3.80;99.90;;;;;;4921687;29;20187;-80
2021/12/05 03:24:21;;;;;;;11.47;10.87;;;3.80;99.90;;;;;;4935783;23;20323;-74
2021/12/05 03:26:50;;;;;;;10.23;9.77;;;3.70;99.90;;;;;;4915867;29;20255;-74
2021/12/05 03:29:18;;;;;;;10.63;10.03;;;3.70;99.90;;;;;;4919484;29;20292;-75
2021/12/05 03:31:45;;;;;;;10.53;10.10;;;3.60;99.90;;;;;;4898042;29;20339;-75
2021/12/05 03:34:14;;;;;;;12.03;11.47;;;3.60;99.90;;;;;;4899361;29;20223;-74
2021/12/05 03:36:43;;;;;;;9.63;9.13;;;3.60;99.90;;;;;;4899184;29;20187;-77
2021/12/05 03:39:11;;;;;;;7.33;7.03;;;3.60;99.90;;;;;;4899245;29;20186;-76
2021/12/05 03:41:38;;;;;;;6.53;6.13;;;3.60;99.90;;;;;;4898853;29;20568;-76
2021/12/05 03:44:07;;;;;;;5.20;4.87;;;3.70;99.90;;;;;;4899124;29;20201;-77
2021/12/05 03:46:33;;;;;;;5.63;5.43;;;3.70;99.90;;;;;;4899316;29;20201;-77
2021/12/05 03:49:05;;;;;;;5.90;5.50;;;3.70;99.90;;;;;;4898918;29;20825;-76
2021/12/05 03:51:34;;;;;;;6.10;5.60;;;3.80;99.90;;;;;;4898771;29;20221;-77
2021/12/05 03:54:01;;;;;;;5.83;5.63;;;3.90;99.90;;;;;;4913397;29;20651;-76
2021/12/05 03:56:29;;;;;;;5.50;5.10;;;3.90;99.90;;;;;;4899023;29;20187;-76
2021/12/05 03:58:55;;;;;;;6.17;5.93;;;3.90;99.90;;;;;;4897823;29;20226;-77
2021/12/05 04:01:24;;;;;;;9.37;8.43;;;3.90;99.90;;;;;;4898588;29;20224;-75
2021/12/05 04:03:50;;;;;;;8.90;8.23;;;3.80;99.90;;;;;;4898586;29;20261;-76
2021/12/05 04:06:18;;;;;;;8.90;8.30;;;3.90;99.90;;;;;;4898730;29;20682;-74
2021/12/05 04:08:44;;;;;;;11.67;10.67;;;3.90;99.90;;;;;;4898829;29;20549;-74
2021/12/05 04:11:26;;;;;;;9.27;8.70;;;4.00;99.90;;;;;;4898248;29;20191;-74
2021/12/05 04:13:53;;;;;;;7.67;7.17;;;3.90;99.90;;;;;;4897964;29;20228;-75
2021/12/05 04:16:20;;;;;;;6.90;6.47;;;3.90;99.90;;;;;;4898889;29;20554;-75
2021/12/05 04:18:47;;;;;;;6.43;5.97;;;4.00;99.90;;;;;;4898359;29;20187;-75
2021/12/05 04:21:15;;;;;;;6.83;6.23;;;4.00;99.90;;;;;;4897481;29;20192;-74
2021/12/05 04:23:43;;;;;;;8.90;6.70;;;4.00;99.90;;;;;;4898164;29;20737;-75
2021/12/05 04:26:09;;;;;;;8.27;6.80;;;4.00;99.90;;;;;;4898573;29;20190;-74
2021/12/05 04:28:36;;;;;;;7.10;6.87;;;3.90;99.90;;;;;;4898524;29;20265;-75
2021/12/05 04:31:03;;;;;;;6.93;6.43;;;3.80;99.90;;;;;;4897622;29;20282;-75
2021/12/05 04:33:29;;;;;;;6.47;6.17;;;3.80;99.90;;;;;;4898098;29;20290;-75
2021/12/05 04:35:55;;;;;;;8.30;7.70;;;3.80;99.90;;;;;;4898569;29;20651;-75
2021/12/05 04:38:20;;;;;;;7.33;6.93;;;3.90;99.90;;;;;;4898235;29;20252;-75
2021/12/05 04:40:49;;;;;;;7.57;7.17;;;3.90;99.90;;;;;;4897559;29;20182;-75
2021/12/05 04:43:15;;;;;;;7.60;6.03;;;3.90;99.90;;;;;;4896763;29;20647;-75
2021/12/05 04:45:41;;;;;;;7.13;6.73;;;3.80;99.90;;;;;;4897955;29;20210;-75
2021/12/05 04:48:08;;;;;;;6.80;6.50;;;3.80;99.90;;;;;;4897984;29;20277;-75
2021/12/05 04:50:35;;;;;;;7.57;6.47;;;3.80;99.90;;;;;;4897604;29;20190;-75
2021/12/05 04:53:02;;;;;;;7.50;7.03;;;3.80;99.90;;;;;;4897724;29;20216;-75
2021/12/05 04:55:28;;;;;;;6.77;6.27;;;3.80;99.90;;;;;;4897949;29;20698;-75
2021/12/05 04:57:55;;;;;;;6.87;6.10;;;3.70;99.90;;;;;;4896705;29;20279;-75
2021/12/05 05:00:27;;;;;;;6.53;6.00;;;3.70;99.90;;;;;;4897235;29;20185;-75
2021/12/05 05:02:54;;;;;;;6.37;5.97;;;3.70;99.90;;;;;;4912127;29;20758;-76
2021/12/05 05:05:21;;;;;;;7.67;7.27;;;3.70;99.90;;;;;;4897750;29;20192;-76
2021/12/05 05:07:48;;;;;;;7.20;6.87;;;3.70;99.90;;;;;;4897647;29;20560;-75
2021/12/05 05:10:29;;;;;;;6.23;5.83;;;3.70;99.90;;;;;;4896082;29;20661;-75
2021/12/05 05:12:56;;;;;;;5.87;5.67;;;3.70;99.90;;;;;;4897149;29;20221;-76
2021/12/05 05:15:26;;;;;;;7.13;6.77;;;3.80;99.90;;;;;;4897650;29;20192;-76
2021/12/05 05:17:54;;;;;;;8.00;7.20;;;3.90;99.90;;;;;;4897593;29;20182;-76
2021/12/05 05:20:37;;;;;;;6.87;6.47;;;3.90;99.90;;;;;;4893603;29;20690;-75
2021/12/05 05:39:30;;;;;;;7.80;7.17;;;3.90;99.90;;;;;;4897062;29;20186;-75
2021/12/05 05:52:11;;;;;;;5.90;5.70;;;3.80;99.90;;;;;;4877855;29;20621;-74
2021/12/05 05:54:37;;;;;;;6.47;6.17;;;3.70;99.90;;;;;;4887894;29;20217;-74
2021/12/05 05:57:23;;;;;;;7.60;6.90;;;3.70;99.90;;;;;;4895615;29;20566;-74
2021/12/05 06:05:39;;;;;;;8.00;5.20;;;3.70;99.90;;;;;;4913427;29;20187;-74
2021/12/05 06:08:05;;;;;;;7.40;6.80;;;3.70;99.90;;;;;;4903156;29;20188;-74
2021/12/05 06:10:32;;;;;;;7.83;7.30;;;3.70;99.90;;;;;;4894751;29;20645;-74
2021/12/05 06:12:59;;;;;;;10.07;7.67;;;3.70;99.90;;;;;;4896096;29;20236;-74
2021/12/05 06:15:27;;;;;;;6.90;6.50;;;3.70;99.90;;;;;;4896186;29;20186;-74
2021/12/05 06:17:53;;;;;;;6.57;6.13;;;3.70;99.90;;;;;;4895222;29;20186;-74
2021/12/05 06:20:23;;;;;;;6.93;5.83;;;3.80;99.90;;;;;;4895591;29;20264;-74
2021/12/05 06:22:49;;;;;;;6.63;6.27;;;3.70;99.90;;;;;;4895635;29;20180;-74
2021/12/05 06:25:23;;;;;;;6.13;5.90;;;3.70;99.90;;;;;;4895108;29;20186;-75
2021/12/05 06:27:51;;;;;;;6.63;6.07;;;3.60;99.90;;;;;;4895966;29;20213;-74
2021/12/05 06:46:12;;;;;;;5.87;5.60;;;3.10;99.90;;;;;;4895806;29;20194;-75
2021/12/05 06:48:43;;;;;;;7.03;6.30;;;3.10;99.90;;;;;;4894401;29;20210;-75
2021/12/05 06:51:15;;;;;;;5.43;5.13;;;3.10;99.90;;;;;;4895051;29;20192;-74
2021/12/05 06:53:41;;;;;;;5.60;5.20;;;3.10;99.90;;;;;;4894551;29;20223;-75
2021/12/05 06:56:07;;;;;;;5.93;5.73;;;3.20;99.90;;;;;;4895433;29;20194;-75
2021/12/05 06:58:34;;;;;;;6.77;6.47;;;3.20;99.90;;;;;;4895651;29;20201;-74
2021/12/05 07:01:04;;;;;;;6.90;6.30;;;3.30;99.90;;;;;;4896020;29;20178;-75
2021/12/05 07:03:29;;;;;;;8.40;7.70;;;3.20;99.90;;;;;;4909591;29;21916;-74
2021/12/05 07:06:00;;;;;;;11.07;10.47;;;3.10;99.90;;;;;;4894805;29;20270;-74
2021/12/05 07:08:30;;;;;;;9.30;8.90;;;3.10;99.90;;;;;;4895571;29;20190;-74
2021/12/05 07:19:41;;;;;;;8.63;8.03;;;3.00;99.90;;;;;;4895136;29;20189;-74
2021/12/05 07:21:53;;;;;;;7.73;7.37;;;2.90;99.90;;;;;;4895694;29;20202;-74
2021/12/05 07:25:03;;;;;;;8.47;7.80;;;2.80;99.90;;;;;;4895260;29;20711;-74
2021/12/05 07:40:55;;;;;;;5.93;5.40;;;3.10;99.90;;;;;;4894593;29;20184;-76
2021/12/05 07:43:21;;;;;;;7.80;7.07;;;3.30;99.90;;;;;;4895274;29;20294;-75
2021/12/05 07:45:59;;;;;;;7.13;6.87;;;3.30;99.90;;;;;;4895498;29;20651;-75
2021/12/05 07:48:29;;;;;;;9.87;9.00;;;3.40;99.90;;;;;;4893960;29;20240;-75
2021/12/05 07:53:36;;;;;;;8.90;8.03;;;3.30;99.90;;;;;;4895521;29;20221;-75
2021/12/05 07:56:10;;;;;;;7.83;7.23;;;3.20;99.90;;;;;;4895011;29;20189;-75
2021/12/05 08:14:20;;;;;;;5.20;4.80;;;3.20;99.90;;;;;;4898593;29;20597;-75
2021/12/05 08:15:09;;;;;;;7.97;7.30;;;3.70;99.90;;;;;;4897969;29;20236;-76
2021/12/05 08:17:36;;;;;;;7.97;7.57;;;4.00;99.90;;;;;;4912053;29;20196;-76
2021/12/05 08:20:04;;;;;;;7.80;7.30;;;4.20;99.90;;;;;;4907916;29;20185;-77
2021/12/05 08:22:30;;;;;;;8.93;8.17;;;4.40;99.90;;;;;;4897424;29;20193;-76
2021/12/05 08:25:00;;;;;;;9.03;8.43;;;4.50;99.90;;;;;;4897861;29;20210;-75
2021/12/05 08:27:26;;;;;;;11.50;10.50;;;4.70;99.90;;;;;;4911162;29;20186;-75
2021/12/05 08:29:56;;;;;;;9.17;8.57;;;4.90;99.90;;;;;;4922620;29;20865;-71
2021/12/05 08:32:34;;;;;;;9.77;9.13;;;5.00;99.90;;;;;;4898280;29;20242;-70
2021/12/05 08:38:10;;;;;;;8.23;7.63;;;5.70;99.90;;;;;;4897314;29;20189;-70
2021/12/05 09:24:07;;;;;;;12.67;11.97;;;10.30;99.90;;;;;;4922633;23;20320;-70
2021/12/05 09:29:45;;;;;;;11.93;11.23;;;10.10;99.90;;;;;;4925438;29;20267;-68
2021/12/05 09:50:56;;;;;;;10.27;9.47;;;9.40;99.90;;;;;;4895855;29;20198;-69
2021/12/05 10:10:26;;;;;;;9.93;9.43;;;13.50;99.90;;;;;;4914730;29;20214;-69
2021/12/05 10:18:50;;;;;;;12.27;11.37;;;13.70;99.90;;;;;;4915087;29;20223;-69
2021/12/05 10:35:47;;;;;;;16.43;15.47;;;15.20;95.70;;;;;;4914536;29;20218;-69
2021/12/05 10:38:44;;;;;;;9.53;9.07;;;15.30;95.70;;;;;;4914435;29;20662;-68
2021/12/05 10:41:22;;;;;;;10.40;9.67;;;15.50;95.20;;;;;;4913866;29;20198;-69
2021/12/05 10:44:05;;;;;;;8.37;7.97;;;15.70;94.30;;;;;;4914413;29;20250;-68
2021/12/05 10:46:36;;;;;;;6.93;6.63;;;15.60;94.30;;;;;;4914428;29;20187;-70
2021/12/05 10:49:08;;;;;;;6.77;6.37;;;15.10;94.60;;;;;;4913661;29;20546;-70
2021/12/05 10:51:42;;;;;;;6.17;5.77;;;14.90;95.80;;;;;;4914030;29;20187;-70
2021/12/05 10:54:10;;;;;;;6.60;6.30;;;14.60;96.30;;;;;;4928520;29;20227;-71
2021/12/05 10:56:47;;;;;;;9.87;9.17;;;14.30;96.30;;;;;;4914824;29;20291;-70
2021/12/05 10:59:16;;;;;;;7.43;7.03;;;13.70;97.20;;;;;;4914451;29;20193;-70
2021/12/05 11:01:48;;;;;;;9.30;8.60;;;13.80;97.90;;;;;;4912716;29;20264;-70
2021/12/05 11:04:24;;;;;;;7.63;7.13;;;14.60;96.60;;;;;;4914130;29;20312;-70
2021/12/05 11:06:58;;;;;;;7.57;7.07;;;14.70;95.80;;;;;;4913090;29;20525;-70
2021/12/05 11:09:31;;;;;;;5.93;5.53;;;14.70;94.60;;;;;;4913724;29;20194;-70
2021/12/05 11:12:25;;;;;;;5.10;4.90;;;14.90;93.90;;;;;;4913977;29;20193;-71
2021/12/05 11:14:56;;;;;;;5.03;4.73;;;15.80;94.00;;;;;;4913362;29;20608;-71
2021/12/05 11:17:26;;;;;;;4.77;4.57;;;14.90;94.00;;;;;;4914173;29;20233;-70
2021/12/05 11:19:57;;;;;;;5.03;4.73;;;15.00;94.40;;;;;;4913761;29;20524;-70
2021/12/05 11:22:49;;;;;;;6.20;5.67;;;13.30;96.20;;;;;;4928202;29;20179;-71
2021/12/05 11:25:23;;;;;;;6.00;5.60;;;12.80;98.00;;;;;;4912829;29;20217;-70
2021/12/05 11:27:55;;;;;;;5.40;5.20;;;13.00;97.00;;;;;;4914373;29;20188;-71
2021/12/05 11:30:23;;;;;;;5.90;5.70;;;12.30;98.20;;;;;;4913746;29;20193;-69
2021/12/05 11:32:51;;;;;;;6.20;5.97;;;12.30;99.20;;;;;;4914557;29;20563;-69
2021/12/05 11:35:25;;;;;;;6.67;6.47;;;11.70;98.70;;;;;;4917634;29;20211;-69
2021/12/05 11:38:13;;;;;;;11.17;10.57;;;11.20;99.70;;;;;;4913006;29;20246;-69
2021/12/05 11:40:59;;;;;;;11.23;10.63;;;11.50;99.90;;;;;;4912981;29;20251;-70
2021/12/05 11:43:30;;;;;;;11.20;10.50;;;11.40;99.90;;;;;;4898691;29;20237;-70
2021/12/05 11:45:57;;;;;;;9.33;8.77;;;11.00;99.90;;;;;;4913423;29;20190;-70
2021/12/05 11:48:40;;;;;;;8.43;8.03;;;10.60;99.90;;;;;;4913503;29;20197;-70
2021/12/05 11:51:35;;;;;;;15.07;14.23;;;10.10;99.90;;;;;;4908472;29;20191;-69
2021/12/05 11:54:12;;;;;;;10.30;9.80;;;9.50;99.90;;;;;;4917506;29;20230;-71
2021/12/05 11:56:40;;;;;;;13.07;12.47;;;9.00;99.90;;;;;;4917560;29;20202;-70
2021/12/05 11:59:24;;;;;;;16.10;15.17;;;8.70;99.90;;;;;;4917303;29;20648;-70
2021/12/05 12:01:57;;;;;;;7.97;7.47;;;8.40;99.90;;;;;;4916793;29;20187;-70
2021/12/05 12:04:26;;;;;;;4.90;4.60;;;8.20;99.90;;;;;;4916834;29;20217;-70
2021/12/05 12:07:16;;;;;;;4.43;4.13;;;8.10;99.90;;;;;;4917163;29;20599;-70
2021/12/05 12:09:43;;;;;;;3.90;3.70;;;8.00;99.90;;;;;;4916650;29;20190;-70
2021/12/05 12:12:10;;;;;;;6.63;6.17;;;8.00;99.90;;;;;;4929929;29;20203;-70
2021/12/05 12:14:36;;;;;;;5.77;5.57;;;8.00;99.90;;;;;;4914943;29;20211;-70
2021/12/05 12:17:10;;;;;;;5.47;5.27;;;8.00;99.90;;;;;;4916985;29;20656;-70
2021/12/05 12:19:36;;;;;;;6.57;6.27;;;8.00;99.90;;;;;;4912108;29;20852;-70
2021/12/05 12:22:04;;;;;;;5.53;5.17;;;8.00;99.90;;;;;;4898040;29;20278;-70
2021/12/05 12:24:31;;;;;;;6.40;6.10;;;8.10;99.90;;;;;;4912191;29;20218;-70
2021/12/05 12:26:57;;;;;;;6.43;6.03;;;8.20;99.90;;;;;;4897724;29;20180;-70
2021/12/05 12:29:25;;;;;;;6.07;5.77;;;8.30;99.90;;;;;;4897793;29;20605;-70
2021/12/05 12:31:52;;;;;;;9.80;6.20;;;8.40;99.90;;;;;;4897002;29;20708;-71
2021/12/05 12:34:21;;;;;;;6.43;6.07;;;8.30;99.90;;;;;;4916702;29;20295;-71
2021/12/05 12:36:57;;;;;;;5.53;5.17;;;8.20;99.90;;;;;;4916288;29;20672;-71
2021/12/05 12:39:29;;;;;;;7.10;6.80;;;8.10;99.90;;;;;;4916536;29;20274;-71
2021/12/05 12:42:01;;;;;;;5.37;4.87;;;8.00;99.90;;;;;;4914624;29;20217;-71
2021/12/05 12:44:27;;;;;;;4.27;4.07;;;7.80;99.90;;;;;;4909754;29;20217;-71
2021/12/05 12:46:59;;;;;;;3.70;3.60;;;7.80;99.90;;;;;;4905748;29;20222;-71
2021/12/05 12:49:32;;;;;;;5.00;4.70;;;7.80;99.90;;;;;;4914502;29;20192;-71
2021/12/05 12:52:09;;;;;;;4.00;3.80;;;7.70;99.90;;;;;;4913703;29;20179;-72
2021/12/05 12:54:44;;;;;;;4.77;4.40;;;7.60;99.90;;;;;;4915722;29;20316;-71
2021/12/05 12:57:32;;;;;;;4.57;4.37;;;7.90;99.90;;;;;;4915726;29;20676;-71
2021/12/05 13:00:08;;;;;;;5.90;5.50;;;8.00;99.90;;;;;;4915244;29;20193;-71
2021/12/05 13:05:41;;;;;;;4.83;4.53;;;8.10;99.90;;;;;;4915735;29;20203;-71
2021/12/05 13:11:06;;;;;;;4.47;4.37;;;7.90;99.90;;;;;;4919339;29;20346;-71
2021/12/05 13:13:33;;;;;;;4.17;3.97;;;7.90;99.90;;;;;;4923754;29;20729;-70
2021/12/05 13:16:14;;;;;;;4.87;4.57;;;7.90;99.90;;;;;;4914787;29;20175;-69
2021/12/05 13:18:40;;;;;;;5.37;5.00;;;7.80;99.90;;;;;;4912858;29;20182;-69
2021/12/05 13:21:11;;;;;;;4.30;4.10;;;7.70;99.90;;;;;;4915001;29;20187;-69
2021/12/05 13:23:44;;;;;;;4.53;4.33;;;7.70;99.90;;;;;;4914166;29;20278;-71
2021/12/05 13:26:25;;;;;;;7.63;7.23;;;7.70;99.90;;;;;;4914628;29;20274;-67
2021/12/05 13:29:14;;;;;;;5.67;5.43;;;7.60;99.90;;;;;;4911292;29;20187;-69
2021/12/05 13:31:53;;;;;;;4.70;4.50;;;7.60;99.90;;;;;;4922259;29;20560;-72
2021/12/05 13:34:27;;;;;;;5.20;4.67;;;7.60;99.90;;;;;;4915769;29;20238;-73
2021/12/05 13:37:13;;;;;;;5.70;5.40;;;7.50;99.90;;;;;;4915845;29;20194;-72
2021/12/05 13:39:41;;;;;;;5.87;5.37;;;7.50;99.90;;;;;;4914165;29;20266;-73
2021/12/05 13:42:16;;;;;;;5.53;5.13;;;7.50;99.90;;;;;;4915254;29;20666;-73
2021/12/05 13:45:04;;;;;;;6.50;5.83;;;7.60;99.90;;;;;;4914177;29;20679;-72
2021/12/05 13:47:40;;;;;;;6.20;5.00;;;7.60;99.90;;;;;;4915577;29;20218;-70
2021/12/05 13:50:29;;;;;;;5.13;4.80;;;7.60;99.90;;;;;;4915349;29;20201;-72
2021/12/05 13:53:07;;;;;;;5.40;4.93;;;7.40;99.90;;;;;;4915081;29;20566;-72
2021/12/05 13:55:35;;;;;;;5.97;5.50;;;7.30;99.90;;;;;;4914883;29;20183;-72
2021/12/05 13:58:20;;;;;;;5.37;4.97;;;7.20;99.90;;;;;;4930022;29;20182;-71
2021/12/05 14:00:56;;;;;;;4.80;4.37;;;7.10;99.90;;;;;;4929585;29;20182;-72
2021/12/05 14:03:38;;;;;;;5.83;5.33;;;7.10;99.90;;;;;;4929927;29;20229;-73
2021/12/05 14:06:38;;;;;;;8.17;7.17;;;7.00;99.90;;;;;;4915288;29;20196;-70
2021/12/05 14:09:24;;;;;;;6.13;5.73;;;6.90;99.90;;;;;;4910820;29;20185;-70
2021/12/05 14:11:55;;;;;;;5.13;4.93;;;7.00;99.90;;;;;;4910571;29;20187;-71
2021/12/05 14:14:35;;;;;;;5.90;5.40;;;7.10;99.90;;;;;;4896073;29;20249;-71
2021/12/05 14:17:10;;;;;;;6.10;5.80;;;7.00;99.90;;;;;;4896471;29;20186;-71
2021/12/05 14:19:38;;;;;;;7.60;7.20;;;7.10;99.90;;;;;;4910497;29;20179;-71
2021/12/05 14:22:07;;;;;;;7.33;6.93;;;7.10;99.90;;;;;;4909969;29;20187;-71
2021/12/05 14:24:39;;;;;;;7.27;6.77;;;7.10;99.90;;;;;;4913318;29;20226;-70
2021/12/05 14:27:10;;;;;;;5.97;5.70;;;7.10;99.90;;;;;;4915166;29;20261;-71
2021/12/05 14:29:40;;;;;;;7.87;6.97;;;7.10;99.90;;;;;;4914781;29;20191;-70
2021/12/05 14:32:21;;;;;;;6.57;6.17;;;7.00;99.90;;;;;;4915012;29;20217;-71
2021/12/05 14:34:47;;;;;;;5.47;4.97;;;7.00;99.90;;;;;;4910222;29;20257;-71
2021/12/05 14:37:17;;;;;;;5.37;5.03;;;7.00;99.90;;;;;;4894744;29;20183;-71
2021/12/05 14:39:55;;;;;;;4.93;4.47;;;7.00;99.90;;;;;;4894432;29;20191;-68
2021/12/05 14:42:23;;;;;;;4.90;4.70;;;7.00;99.90;;;;;;4910321;29;20194;-70
2021/12/05 14:45:03;;;;;;;4.80;4.60;;;7.00;99.90;;;;;;4895963;29;20775;-71
2021/12/05 14:47:30;;;;;;;6.17;5.77;;;7.00;99.90;;;;;;4895626;29;20679;-71
2021/12/05 14:50:01;;;;;;;8.70;7.90;;;6.90;99.90;;;;;;4922740;29;20202;-71
2021/12/05 14:52:33;;;;;;;8.00;7.23;;;6.90;99.90;;;;;;4913560;29;20201;-70
2021/12/05 14:55:03;;;;;;;7.50;6.77;;;6.80;99.90;;;;;;4913631;29;20278;-70
2021/12/05 14:57:32;;;;;;;9.80;9.33;;;6.70;99.90;;;;;;4914803;29;20560;-70
2021/12/05 15:00:06;;;;;;;12.20;11.60;;;6.60;99.90;;;;;;4929231;29;20186;-71
2021/12/05 15:02:33;;;;;;;12.13;11.53;;;6.50;99.90;;;;;;4914683;29;20181;-71
2021/12/05 15:04:59;;;;;;;10.27;9.67;;;6.30;99.90;;;;;;4914548;29;20206;-71
2021/12/05 15:07:26;;;;;;;6.33;6.03;;;6.20;99.90;;;;;;4917684;29;20200;-70
2021/12/05 15:09:56;;;;;;;4.90;4.60;;;6.10;99.90;;;;;;4918578;29;20270;-71
2021/12/05 15:12:34;;;;;;;6.67;6.37;;;6.00;99.90;;;;;;4918765;29;20742;-71
2021/12/05 15:15:12;;;;;;;6.97;6.53;;;5.90;99.90;;;;;;4917150;29;20707;-70
2021/12/05 15:17:41;;;;;;;6.77;6.47;;;5.90;99.90;;;;;;4918567;29;20615;-71
2021/12/05 15:20:09;;;;;;;6.10;5.80;;;5.80;99.90;;;;;;4917969;29;20667;-70
2021/12/05 15:22:36;;;;;;;5.47;5.17;;;5.70;99.90;;;;;;4918313;29;20561;-71
2021/12/05 15:25:08;;;;;;;5.30;5.10;;;5.60;99.90;;;;;;4918278;29;20778;-70
2021/12/05 15:27:36;;;;;;;4.90;4.70;;;5.60;99.90;;;;;;4918487;29;20681;-70
2021/12/05 15:30:12;;;;;;;5.53;5.33;;;5.50;99.90;;;;;;4918202;29;20188;-70
2021/12/05 15:32:38;;;;;;;7.90;7.60;;;5.50;99.90;;;;;;4918253;29;20186;-70
2021/12/05 15:35:08;;;;;;;8.37;7.97;;;5.40;99.90;;;;;;4917930;29;20212;-70
2021/12/05 15:37:34;;;;;;;7.23;6.90;;;5.40;99.90;;;;;;4917128;29;20192;-70
2021/12/05 15:40:02;;;;;;;7.73;7.20;;;5.30;99.90;;;;;;4918293;29;20185;-71
2021/12/05 15:42:32;;;;;;;12.13;11.33;;;5.30;99.90;;;;;;4918325;29;20857;-70
2021/12/05 15:45:01;;;;;;;9.63;9.10;;;5.20;99.90;;;;;;4916885;29;20212;-70
2021/12/05 15:47:32;;;;;;;10.90;10.30;;;5.10;99.90;;;;;;4917648;29;20182;-70
2021/12/05 15:50:05;;;;;;;10.50;9.90;;;5.10;99.90;;;;;;4917769;29;20505;-71
2021/12/05 15:52:43;;;;;;;10.93;10.37;;;5.00;99.90;;;;;;4917963;29;20198;-70
2021/12/05 15:55:16;;;;;;;10.60;10.00;;;4.90;99.90;;;;;;4917795;29;20257;-69
2021/12/05 15:57:46;;;;;;;10.27;9.77;;;4.90;99.90;;;;;;4918847;29;20208;-70
2021/12/05 16:00:18;;;;;;;9.40;9.00;;;4.90;99.90;;;;;;4916490;29;20261;-70
2021/12/05 16:02:47;;;;;;;9.60;9.07;;;4.80;99.90;;;;;;4917312;29;20272;-71
2021/12/05 16:05:16;;;;;;;7.70;7.40;;;4.80;99.90;;;;;;4917797;29;20904;-70
2021/12/05 16:07:42;;;;;;;7.80;7.50;;;4.70;99.90;;;;;;4917714;29;20654;-70
2021/12/05 16:10:15;;;;;;;9.00;8.40;;;4.70;99.90;;;;;;4917324;29;20250;-70
2021/12/05 16:12:43;;;;;;;8.07;7.60;;;4.60;99.90;;;;;;4916497;29;20184;-70
2021/12/05 16:15:10;;;;;;;6.73;6.33;;;4.60;99.90;;;;;;4916144;29;20780;-70
2021/12/05 16:17:36;;;;;;;6.33;6.03;;;4.60;99.90;;;;;;4917081;29;20188;-71
2021/12/05 16:20:16;;;;;;;6.93;6.43;;;4.60;99.90;;;;;;4915918;29;20192;-70
2021/12/05 16:22:58;;;;;;;6.80;6.40;;;4.70;99.90;;;;;;4917264;29;20187;-70
2021/12/05 16:25:24;;;;;;;6.47;6.07;;;4.70;99.90;;;;;;4917559;29;20194;-70
2021/12/05 16:27:56;;;;;;;6.80;6.43;;;4.70;99.90;;;;;;4917563;29;20184;-70
2021/12/05 16:30:25;;;;;;;6.30;6.03;;;4.70;99.90;;;;;;4919174;29;20277;-69
2021/12/05 16:32:53;;;;;;;5.83;5.63;;;4.60;99.90;;;;;;4898292;29;20191;-71
2021/12/05 16:35:48;;;;;;;5.67;5.37;;;4.60;99.90;;;;;;4898071;29;20232;-70
2021/12/05 16:38:24;;;;;;;6.47;6.17;;;4.50;99.90;;;;;;4898615;29;20194;-72
2021/12/05 16:41:29;;;;;;;8.47;8.07;;;4.50;99.90;;;;;;4897851;29;20185;-71
2021/12/05 16:44:19;;;;;;;6.47;6.00;;;4.40;99.90;;;;;;4907374;29;20286;-70
2021/12/05 16:46:44;;;;;;;5.20;5.00;;;4.40;99.90;;;;;;4923487;29;20680;-71
2021/12/05 16:49:16;;;;;;;5.50;5.30;;;4.40;99.90;;;;;;4922743;29;20194;-71
2021/12/05 16:51:49;;;;;;;5.70;5.40;;;4.30;99.90;;;;;;4938172;29;20186;-71
2021/12/05 16:54:21;;;;;;;13.07;9.97;;;4.30;99.90;;;;;;4924184;29;20249;-71
2021/12/05 16:56:48;;;;;;;11.30;8.90;;;4.30;99.90;;;;;;4920167;29;20193;-71
2021/12/05 16:59:21;;;;;;;7.10;6.50;;;4.20;99.90;;;;;;4916837;29;20188;-71
2021/12/05 17:02:05;;;;;;;6.90;6.50;;;4.30;99.90;;;;;;4916565;29;20213;-70
2021/12/05 17:05:00;;;;;;;7.03;6.63;;;4.30;99.90;;;;;;4916540;29;20212;-70
2021/12/05 17:07:37;;;;;;;7.30;6.90;;;4.30;99.90;;;;;;4915381;29;20199;-70
2021/12/05 17:10:23;;;;;;;8.43;7.83;;;4.30;99.90;;;;;;4915227;29;20279;-70
2021/12/05 17:13:04;;;;;;;8.27;7.70;;;4.30;99.90;;;;;;4916136;29;20616;-70
2021/12/05 17:15:31;;;;;;;8.30;6.57;;;4.40;99.90;;;;;;4916519;29;20216;-70
2021/12/05 17:18:04;;;;;;;7.17;6.47;;;4.30;99.90;;;;;;4916388;29;20179;-70
2021/12/05 17:20:35;;;;;;;8.47;8.03;;;4.30;99.90;;;;;;4915947;29;20192;-70
2021/12/05 17:23:03;;;;;;;10.63;9.73;;;4.20;99.90;;;;;;4914958;29;20181;-70
2021/12/05 17:25:57;;;;;;;8.43;7.73;;;4.20;99.90;;;;;;4915957;29;20283;-71
2021/12/05 17:28:39;;;;;;;5.90;5.53;;;4.10;99.90;;;;;;4915981;29;20176;-71
2021/12/05 17:31:08;;;;;;;6.37;5.97;;;4.00;99.90;;;;;;4913472;29;20193;-64
2021/12/05 17:33:40;;;;;;;6.70;6.20;;;3.90;99.90;;;;;;4916187;29;20222;-64
2021/12/05 17:36:29;;;;;;;12.13;11.43;;;3.90;99.90;;;;;;4916170;29;20626;-64
2021/12/05 17:39:04;;;;;;;15.57;14.53;;;3.80;99.90;;;;;;4915474;29;20188;-65
2021/12/05 17:41:31;;;;;;;12.43;9.47;;;3.80;99.90;;;;;;4915532;29;20186;-64
2021/12/05 17:43:59;;;;;;;9.90;8.90;;;3.70;99.90;;;;;;4909795;29;20212;-64
2021/12/05 17:46:26;;;;;;;8.10;7.50;;;3.70;99.90;;;;;;4908090;29;20192;-65
2021/12/05 17:48:52;;;;;;;7.23;6.70;;;3.60;99.90;;;;;;4920489;29;20184;-76
2021/12/05 17:51:19;;;;;;;7.00;6.37;;;3.50;99.90;;;;;;4932901;29;20295;-76
2021/12/05 17:53:45;;;;;;;5.87;5.57;;;3.40;99.90;;;;;;4919171;29;20743;-74
2021/12/05 17:56:24;;;;;;;6.17;5.67;;;3.30;99.90;;;;;;4915147;29;20190;-75
2021/12/05 17:59:04;;;;;;;13.87;10.90;;;3.20;99.90;;;;;;4913753;29;20179;-74
2021/12/05 18:04:19;;;;;;;6.80;6.30;;;3.10;99.90;;;;;;4915296;29;20245;-75
2021/12/05 18:06:45;;;;;;;6.97;6.57;;;3.00;99.90;;;;;;4915013;29;20572;-74
2021/12/05 18:09:11;;;;;;;6.97;6.57;;;3.00;99.90;;;;;;4915229;29;20193;-76
2021/12/05 18:11:36;;;;;;;8.20;7.47;;;3.10;99.90;;;;;;4913740;29;20188;-76
2021/12/05 18:14:03;;;;;;;9.23;8.33;;;3.10;99.90;;;;;;4913610;29;20255;-76
2021/12/05 18:16:31;;;;;;;8.57;7.77;;;3.10;99.90;;;;;;4913808;29;20187;-75
2021/12/05 18:19:07;;;;;;;9.93;8.93;;;3.10;99.90;;;;;;4914399;29;20228;-77
2021/12/05 18:21:37;;;;;;;14.93;11.27;;;3.20;99.90;;;;;;4913618;29;20277;-77
2021/12/05 18:24:09;;;;;;;10.27;9.23;;;3.20;99.90;;;;;;4920094;29;20412;-76
2021/12/05 18:26:37;;;;;;;9.63;8.93;;;3.10;99.90;;;;;;4919556;29;20196;-76
2021/12/05 18:29:05;;;;;;;13.33;10.53;;;3.00;99.90;;;;;;4913985;29;20183;-76
2021/12/05 18:31:34;;;;;;;10.53;9.63;;;2.90;99.90;;;;;;4915146;29;20191;-77
2021/12/05 18:34:06;;;;;;;14.07;12.60;;;2.80;99.90;;;;;;4912874;29;20215;-77
2021/12/05 18:36:35;;;;;;;11.03;10.13;;;2.80;99.90;;;;;;4920856;29;20191;-77
2021/12/05 18:39:03;;;;;;;12.43;11.33;;;2.90;99.90;;;;;;4920498;29;20185;-77
2021/12/05 18:41:30;;;;;;;15.90;10.87;;;3.10;99.90;;;;;;4917529;29;20235;-76
2021/12/05 18:43:59;;;;;;;11.93;10.90;;;3.00;99.90;;;;;;4919584;29;20212;-77
2021/12/05 18:46:25;;;;;;;11.60;10.60;;;3.00;99.90;;;;;;4925848;29;20192;-77
2021/12/05 18:48:51;;;;;;;9.87;8.97;;;3.00;99.90;;;;;;4921263;29;20241;-77
2021/12/05 18:51:20;;;;;;;10.83;9.27;;;3.00;99.90;;;;;;4923721;29;20201;-77
2021/12/05 18:53:46;;;;;;;10.93;10.03;;;2.90;99.90;;;;;;4922791;29;20215;-78
2021/12/05 18:56:12;;;;;;;10.17;9.47;;;2.80;99.90;;;;;;4920435;29;20187;-77
2021/12/05 18:58:42;;;;;;;9.93;9.33;;;2.80;99.90;;;;;;4920241;29;20207;-77